FAPR

Pretoria Airport

Pretoria, South Africa
METAR FAPR 201154Z 28002KT 9999 BKN020 27/16 Q1018
Observed Flight Rules
Feb-20 @ 11:54 UTC (5 hours ago) Marginal Visual Flight Rules
Wind Visibility Clouds
280° at 2 knots 10,000+ meters
  • Broken at 2,000' AGL
Temperatures Readings
Current 27°C / 81°F
Dewpoint 16°C / 61°F
Humidity 51%
Altimeter 30.06" Hg
Pressure 1018 hPa
Elevation 1322
METAR FAPR 201154Z 28002KT 9999 BKN020 27/16 Q1018
Observed Flight Rules
Feb-20 @ 11:54 UTC
(5 hours ago)
MVFR
Wind Visibility
280° at 2 knots 10,000+ meters
Clouds
  • Broken at 2,000' AGL
Temperature Dewpoint
27°C / 81°F 16°C / 61°F
Humidity Altimeter Pressure
51% 30.06" Hg 1018 hPa